Michigan, Nebraska
Current Conditions -  °F | °C
As of 10:53 PM on Saturday 22 Nov 2014 (Local Time) from KODX Reporting Station
Overcast Overcast  
Wind Chill: 36°   Ceiling: 12000
Heat Index: 41°   Visibility: 10mi
Dew Point: 32°   Wind: 7mph
Humidity: 70%   Direction: 130°SE
Pressure: 29.51"   Gusts: NA
Location:  41.579°N, 98.9733°W
Report Text: KODX 230453Z AUTO 13006KT 10SM OVC120 05/00 A2951 RMK AO2 SLP001 T00500000
Loading
Personal Weather Stations






























Interactive Weather Map New forecast layout! Learn more

10-Day Weather Forecast

Advertisements
Track Severe Weather on mobile